createdAt,value
2023-04-13T00:00:48.669Z,10.07
2023-04-13T00:03:17.613Z,10.03
2023-04-13T00:05:46.634Z,9.86
2023-04-13T00:08:14.316Z,9.81
2023-04-13T00:10:41.748Z,9.88
2023-04-13T00:13:10.749Z,9.83
2023-04-13T00:15:41.981Z,9.75
2023-04-13T00:18:10.680Z,9.69
2023-04-13T00:20:39.085Z,9.69
2023-04-13T00:23:06.004Z,9.79
2023-04-13T00:25:32.737Z,9.74
2023-04-13T00:28:03.272Z,9.74
2023-04-13T00:30:30.309Z,9.60
2023-04-13T00:32:57.169Z,9.57
2023-04-13T00:35:25.051Z,9.54
2023-04-13T00:37:53.400Z,9.54
2023-04-13T00:40:20.661Z,9.54
2023-04-13T00:42:49.804Z,9.45
2023-04-13T00:45:20.488Z,9.46
2023-04-13T00:47:50.551Z,9.42
2023-04-13T00:50:20.903Z,9.43
2023-04-13T00:52:48.680Z,9.28
2023-04-13T00:55:20.896Z,9.41
2023-04-13T00:57:50.049Z,9.47
2023-04-13T01:00:17.831Z,9.44
2023-04-13T01:02:44.989Z,9.54
2023-04-13T01:05:15.399Z,9.47
2023-04-13T01:08:09.331Z,9.40
2023-04-13T01:10:54.280Z,9.45
2023-04-13T01:13:26.352Z,9.36
2023-04-13T01:16:12.514Z,9.33
2023-04-13T01:18:41.734Z,9.32
2023-04-13T01:21:13.004Z,9.34
2023-04-13T01:24:06.285Z,9.45
2023-04-13T01:26:57.542Z,9.32
2023-04-13T01:29:26.744Z,9.32
2023-04-13T01:31:54.299Z,9.32
2023-04-13T01:34:23.294Z,9.31
2023-04-13T01:36:50.990Z,9.35
2023-04-13T01:39:21.597Z,9.33
2023-04-13T01:41:48.380Z,9.33
2023-04-13T01:44:15.286Z,9.37
2023-04-13T01:46:47.617Z,9.28
2023-04-13T01:49:19.525Z,9.25
2023-04-13T01:51:48.240Z,9.25
2023-04-13T01:54:22.120Z,9.27
2023-04-13T01:56:50.315Z,9.45
2023-04-13T01:59:17.473Z,9.53
2023-04-13T02:01:44.732Z,9.60
2023-04-13T02:04:11.835Z,9.60
2023-04-13T02:06:39.348Z,9.69
2023-04-13T02:09:09.951Z,9.72
2023-04-13T02:11:37.985Z,9.75
2023-04-13T02:14:04.957Z,9.84
2023-04-13T02:16:32.122Z,9.78
2023-04-13T02:18:59.031Z,9.84
2023-04-13T02:21:25.916Z,9.82
2023-04-13T02:23:52.863Z,9.77
2023-04-13T02:26:20.154Z,9.68
2023-04-13T02:28:47.297Z,9.72
2023-04-13T02:31:17.553Z,9.78
2023-04-13T02:33:44.771Z,9.73
2023-04-13T02:36:12.179Z,9.77
2023-04-13T02:38:39.083Z,9.67
2023-04-13T02:41:06.601Z,9.68
2023-04-13T02:43:34.291Z,9.67
2023-04-13T02:46:01.268Z,9.73
2023-04-13T02:48:28.295Z,9.81
2023-04-13T02:50:55.578Z,9.88
2023-04-13T02:53:24.258Z,9.95
2023-04-13T02:55:51.778Z,9.81
2023-04-13T02:58:21.296Z,9.83
2023-04-13T03:00:48.765Z,9.87
2023-04-13T03:03:17.087Z,9.63
2023-04-13T03:05:44.052Z,9.69
2023-04-13T03:08:10.862Z,9.71
2023-04-13T03:10:37.853Z,9.71
2023-04-13T03:13:04.661Z,9.63
2023-04-13T03:15:32.143Z,9.64
2023-04-13T03:18:00.160Z,9.69
2023-04-13T03:20:29.084Z,9.79
2023-04-13T03:22:58.442Z,9.83
2023-04-13T03:25:25.261Z,9.83
2023-04-13T03:27:52.130Z,9.83
2023-04-13T03:30:19.050Z,9.82
2023-04-13T03:32:46.212Z,9.84
2023-04-13T03:35:13.127Z,9.67
2023-04-13T03:37:44.712Z,9.56
2023-04-13T03:40:11.815Z,9.54
2023-04-13T03:42:38.878Z,9.56
2023-04-13T03:45:06.638Z,9.50
2023-04-13T03:47:33.816Z,9.48
2023-04-13T03:50:00.741Z,9.36
2023-04-13T03:52:27.730Z,9.30
2023-04-13T03:54:54.729Z,9.25
2023-04-13T03:57:22.812Z,9.15
2023-04-13T03:59:49.667Z,9.16
2023-04-13T04:02:16.672Z,9.17
2023-04-13T04:04:43.639Z,9.23
2023-04-13T04:07:11.095Z,9.23
2023-04-13T04:09:37.926Z,9.25
2023-04-13T04:12:05.044Z,9.18
2023-04-13T04:14:31.957Z,9.17
2023-04-13T04:16:58.773Z,9.19
2023-04-13T04:19:25.620Z,9.27
2023-04-13T04:21:53.048Z,9.14
2023-04-13T04:24:23.282Z,9.24
2023-04-13T04:26:50.640Z,9.20
2023-04-13T04:29:21.931Z,9.19
2023-04-13T04:31:53.483Z,9.16
2023-04-13T04:34:20.830Z,9.19
2023-04-13T04:36:51.811Z,9.20
2023-04-13T04:39:22.481Z,9.24
2023-04-13T04:41:54.132Z,9.33
2023-04-13T04:44:25.208Z,9.35
2023-04-13T04:46:52.972Z,9.21
2023-04-13T04:49:21.762Z,9.19
2023-04-13T04:51:49.743Z,9.24
2023-04-13T04:54:17.316Z,9.28
2023-04-13T04:56:45.621Z,9.20
2023-04-13T04:59:12.870Z,9.22
2023-04-13T05:01:40.635Z,9.23
2023-04-13T05:04:08.082Z,9.22
2023-04-13T05:06:34.949Z,9.23
2023-04-13T05:09:06.861Z,9.24
2023-04-13T05:11:34.044Z,9.19
2023-04-13T05:14:01.364Z,9.21
2023-04-13T05:16:30.684Z,9.33
2023-04-13T05:18:58.087Z,9.32
2023-04-13T05:21:26.611Z,9.34
2023-04-13T05:23:53.540Z,9.22
2023-04-13T05:26:20.451Z,9.29
2023-04-13T05:28:47.266Z,9.35
2023-04-13T05:31:14.265Z,9.42
2023-04-13T05:33:41.221Z,9.39
2023-04-13T05:36:08.471Z,9.40
2023-04-13T05:38:35.282Z,9.43
2023-04-13T05:41:03.257Z,9.52
2023-04-13T05:43:30.548Z,9.63
2023-04-13T05:45:57.357Z,9.55
2023-04-13T05:48:24.536Z,9.49
2023-04-13T05:50:51.438Z,9.37
2023-04-13T05:53:18.386Z,9.29
2023-04-13T05:55:47.971Z,9.27
2023-04-13T05:58:15.202Z,9.35
2023-04-13T06:00:43.096Z,9.35
2023-04-13T06:03:11.011Z,9.28
2023-04-13T06:05:38.921Z,9.19
2023-04-13T06:08:05.756Z,9.27
2023-04-13T06:10:32.731Z,9.31
2023-04-13T06:12:59.880Z,9.31
2023-04-13T06:15:26.721Z,9.33
2023-04-13T06:17:53.824Z,9.40
2023-04-13T06:20:21.616Z,9.43
2023-04-13T06:22:49.115Z,9.37
2023-04-13T06:25:16.474Z,9.29
2023-04-13T06:27:44.270Z,9.39
2023-04-13T06:30:12.212Z,9.49
2023-04-13T06:32:39.328Z,9.43
2023-04-13T06:35:06.767Z,9.48
2023-04-13T06:37:35.705Z,9.52
2023-04-13T06:40:10.840Z,9.49
2023-04-13T06:42:43.859Z,9.54
2023-04-13T06:45:12.364Z,9.47
2023-04-13T06:47:42.751Z,9.46
2023-04-13T06:50:13.842Z,9.50
2023-04-13T06:52:44.601Z,9.36
2023-04-13T06:55:11.820Z,9.33
2023-04-13T06:57:38.675Z,9.46
2023-04-13T07:00:15.474Z,9.47
2023-04-13T07:02:53.332Z,9.35
2023-04-13T07:05:20.250Z,9.38
2023-04-13T07:07:47.127Z,9.42
2023-04-13T07:10:13.974Z,9.48
2023-04-13T07:12:40.922Z,9.40
2023-04-13T07:15:09.245Z,9.44
2023-04-13T07:17:36.901Z,9.40
2023-04-13T07:20:05.664Z,9.54
2023-04-13T07:22:33.593Z,9.53
2023-04-13T07:25:00.422Z,9.49
2023-04-13T07:27:27.820Z,9.51
2023-04-13T07:29:55.594Z,9.50
2023-04-13T07:32:28.086Z,9.58
2023-04-13T07:35:01.759Z,9.56
2023-04-13T07:37:29.681Z,9.54
2023-04-13T07:39:56.578Z,9.56
2023-04-13T07:42:23.407Z,9.57
2023-04-13T07:44:50.242Z,9.69
2023-04-13T07:47:17.089Z,9.70
2023-04-13T07:49:43.874Z,9.66
2023-04-13T07:52:10.703Z,9.65
2023-04-13T07:54:37.561Z,9.60
2023-04-13T07:57:05.240Z,9.67
2023-04-13T07:59:32.122Z,9.68
2023-04-13T08:01:59.485Z,9.66
2023-04-13T08:04:26.555Z,9.70
2023-04-13T08:06:54.044Z,9.69
2023-04-13T08:09:21.264Z,9.55
2023-04-13T08:11:49.560Z,9.56
2023-04-13T08:14:16.658Z,9.47
2023-04-13T08:16:43.618Z,9.43
2023-04-13T08:19:11.057Z,9.42
2023-04-13T08:21:41.621Z,9.58
2023-04-13T08:24:09.675Z,9.56
2023-04-13T08:26:36.605Z,9.60
2023-04-13T08:29:03.424Z,9.60
2023-04-13T08:31:30.561Z,9.64
2023-04-13T08:33:57.786Z,9.67
2023-04-13T08:36:24.674Z,9.78
2023-04-13T08:38:51.511Z,9.89
2023-04-13T08:41:20.155Z,9.88
2023-04-13T08:43:47.275Z,10.04
2023-04-13T08:46:21.416Z,10.04
2023-04-13T08:48:54.082Z,10.05
2023-04-13T08:51:22.828Z,10.10
2023-04-13T08:53:53.635Z,9.99
2023-04-13T08:56:24.128Z,9.98
2023-04-13T08:59:04.849Z,10.17
2023-04-13T09:01:34.250Z,10.17
2023-04-13T09:04:12.359Z,10.08
2023-04-13T09:06:42.684Z,10.10
2023-04-13T09:09:11.432Z,10.07
2023-04-13T09:11:39.196Z,10.06
2023-04-13T09:14:06.056Z,10.01
2023-04-13T09:16:41.238Z,10.01
2023-04-13T09:19:08.611Z,10.10
2023-04-13T09:21:44.800Z,10.11
2023-04-13T09:24:12.789Z,10.19
2023-04-13T09:26:44.980Z,10.19
2023-04-13T09:29:19.222Z,10.25
2023-04-13T09:31:47.558Z,10.31
2023-04-13T09:34:25.404Z,10.29
2023-04-13T09:36:54.502Z,10.20
2023-04-13T09:39:29.189Z,10.19
2023-04-13T09:41:56.670Z,10.24
2023-04-13T09:44:24.869Z,10.24
2023-04-13T09:47:03.216Z,10.28
2023-04-13T09:49:43.681Z,10.30
2023-04-13T09:52:22.952Z,10.24
2023-04-13T09:54:55.616Z,10.24
2023-04-13T09:57:32.379Z,10.29
2023-04-13T10:00:01.819Z,10.40
2023-04-13T10:02:29.288Z,10.34
2023-04-13T10:04:56.822Z,10.32
2023-04-13T10:07:26.866Z,10.37
2023-04-13T10:09:54.526Z,10.34
2023-04-13T10:12:22.378Z,10.42
2023-04-13T10:14:50.610Z,10.53
2023-04-13T10:17:49.397Z,10.60
2023-04-13T10:20:17.766Z,10.55
2023-04-13T10:22:47.271Z,10.57
2023-04-13T10:25:25.582Z,10.53
2023-04-13T10:28:00.173Z,10.44
2023-04-13T10:30:28.021Z,10.64
2023-04-13T10:33:09.785Z,10.59
2023-04-13T10:35:37.586Z,10.61
2023-04-13T10:38:05.135Z,10.54
2023-04-13T10:40:46.116Z,10.55
2023-04-13T10:43:13.122Z,10.48
2023-04-13T10:45:39.953Z,10.53
2023-04-13T10:48:07.509Z,10.50
2023-04-13T10:50:34.647Z,10.52
2023-04-13T10:53:01.774Z,10.53
2023-04-13T10:55:29.443Z,10.55
2023-04-13T10:57:58.343Z,10.61
2023-04-13T11:00:42.418Z,10.70
2023-04-13T11:03:17.209Z,10.72
2023-04-13T11:05:47.128Z,10.67
2023-04-13T11:08:19.297Z,10.71
2023-04-13T11:10:54.815Z,10.85
2023-04-13T11:13:22.211Z,10.80
2023-04-13T11:15:49.950Z,10.86
2023-04-13T11:18:28.718Z,10.88
2023-04-13T11:20:56.255Z,10.82
2023-04-13T11:23:26.134Z,10.86
2023-04-13T11:26:01.882Z,10.98
2023-04-13T11:28:43.838Z,10.92
2023-04-13T11:31:11.902Z,10.94
2023-04-13T11:33:40.558Z,11.00
2023-04-13T11:36:09.608Z,10.91
2023-04-13T11:38:40.841Z,10.92
2023-04-13T11:41:16.414Z,10.89
2023-04-13T11:43:48.479Z,10.94
2023-04-13T11:46:23.151Z,10.96
2023-04-13T11:48:50.471Z,10.93
2023-04-13T11:51:17.380Z,11.11
2023-04-13T11:53:45.471Z,11.10
2023-04-13T11:56:13.297Z,11.08
2023-04-13T11:58:40.525Z,11.11
2023-04-13T12:01:14.219Z,11.07
2023-04-13T12:03:59.231Z,10.99
2023-04-13T12:06:34.051Z,10.98
2023-04-13T12:09:10.780Z,10.81
2023-04-13T12:11:44.749Z,10.81
2023-04-13T12:19:26.690Z,10.58
2023-04-13T12:21:58.057Z,10.55
2023-04-13T12:24:37.882Z,10.58
2023-04-13T12:29:41.858Z,10.68
2023-04-13T12:32:17.021Z,10.75
2023-04-13T12:34:44.867Z,10.83
2023-04-13T12:37:12.113Z,10.78
2023-04-13T12:39:39.068Z,10.82
2023-04-13T12:42:06.152Z,10.80
2023-04-13T12:44:34.410Z,10.86
2023-04-13T12:47:02.275Z,10.99
2023-04-13T12:49:29.913Z,10.96
2023-04-13T12:51:56.852Z,11.15
2023-04-13T12:54:23.669Z,11.13
2023-04-13T12:56:50.484Z,11.12
2023-04-13T12:59:17.749Z,11.16
2023-04-13T13:01:44.728Z,11.22
2023-04-13T13:04:11.620Z,11.02
2023-04-13T13:06:38.506Z,11.17
2023-04-13T13:09:05.840Z,11.08
2023-04-13T13:11:32.734Z,11.09
2023-04-13T13:13:59.588Z,11.18
2023-04-13T13:16:26.803Z,11.17
2023-04-13T13:18:53.710Z,11.24
2023-04-13T13:21:21.185Z,11.26
2023-04-13T13:23:48.080Z,11.31
2023-04-13T13:28:45.078Z,11.37
2023-04-13T13:31:12.738Z,11.40
2023-04-13T13:33:39.581Z,11.45
2023-04-13T13:36:07.610Z,11.50
2023-04-13T13:38:36.409Z,11.53
2023-04-13T13:41:03.602Z,11.55
2023-04-13T13:43:30.809Z,11.59
2023-04-13T13:45:57.865Z,11.59
2023-04-13T13:48:24.943Z,11.59
2023-04-13T13:50:51.829Z,11.61
2023-04-13T13:53:18.665Z,11.63
2023-04-13T13:55:45.599Z,11.62
2023-04-13T13:58:12.421Z,11.64
2023-04-13T14:00:39.664Z,11.47
2023-04-13T14:03:06.681Z,11.66
2023-04-13T14:05:33.682Z,11.67
2023-04-13T14:08:00.857Z,11.55
2023-04-13T14:10:27.673Z,11.48
2023-04-13T14:12:55.940Z,11.25
2023-04-13T14:15:23.063Z,10.96
2023-04-13T14:18:06.000Z,11.06
2023-04-13T14:20:38.545Z,10.87
2023-04-13T14:23:05.768Z,10.80
2023-04-13T14:25:32.631Z,10.75
2023-04-13T14:27:59.443Z,10.81
2023-04-13T14:30:27.960Z,10.53
2023-04-13T14:32:56.169Z,10.51
2023-04-13T14:35:23.249Z,10.16
2023-04-13T14:37:50.129Z,10.04
2023-04-13T14:40:21.609Z,9.93
2023-04-13T14:42:50.782Z,10.08
2023-04-13T14:45:17.819Z,9.99
2023-04-13T14:47:44.874Z,9.98
2023-04-13T14:50:12.592Z,9.89
2023-04-13T14:52:39.740Z,9.98
2023-04-13T14:55:07.034Z,9.82
2023-04-13T14:57:33.854Z,9.89
2023-04-13T15:00:00.855Z,10.02
2023-04-13T15:02:28.855Z,10.06
2023-04-13T15:04:56.218Z,10.13
2023-04-13T15:07:29.957Z,10.20
2023-04-13T15:09:58.709Z,10.28
2023-04-13T15:12:25.673Z,10.25
2023-04-13T15:14:52.532Z,10.32
2023-04-13T15:17:19.381Z,10.35
2023-04-13T15:19:46.212Z,10.38
2023-04-13T15:22:13.159Z,10.42
2023-04-13T15:24:39.958Z,10.47
2023-04-13T15:27:06.879Z,10.49
2023-04-13T15:29:33.717Z,10.53
2023-04-13T15:32:00.695Z,10.56
2023-04-13T15:34:28.108Z,10.59
2023-04-13T15:36:56.983Z,10.63
2023-04-13T15:39:23.835Z,10.65
2023-04-13T15:41:52.556Z,10.68
2023-04-13T15:44:19.382Z,10.69
2023-04-13T15:46:48.052Z,10.70
2023-04-13T15:49:15.004Z,10.67
2023-04-13T15:51:41.926Z,10.72
2023-04-13T15:54:08.758Z,10.72
2023-04-13T15:56:35.704Z,10.73
2023-04-13T15:59:02.782Z,10.73
2023-04-13T16:01:45.540Z,10.76
2023-04-13T16:04:12.737Z,10.66
2023-04-13T16:06:39.825Z,10.70
2023-04-13T16:09:09.681Z,10.74
2023-04-13T16:11:39.954Z,10.69
2023-04-13T16:14:07.203Z,10.70
2023-04-13T16:16:46.777Z,10.68
2023-04-13T16:19:17.998Z,10.68
2023-04-13T16:21:46.071Z,10.48
2023-04-13T16:24:13.338Z,10.23
2023-04-13T16:26:40.299Z,10.25
2023-04-13T16:29:08.144Z,10.33
2023-04-13T16:31:35.069Z,10.41
2023-04-13T16:34:06.852Z,10.45
2023-04-13T16:36:38.711Z,10.45
2023-04-13T16:39:11.964Z,10.47
2023-04-13T16:41:39.940Z,10.50
2023-04-13T16:44:06.817Z,10.52
2023-04-13T16:46:33.755Z,10.47
2023-04-13T16:49:00.727Z,10.48
2023-04-13T16:51:27.841Z,10.46
2023-04-13T16:53:54.649Z,10.50
2023-04-13T16:56:22.303Z,10.44
2023-04-13T16:58:50.065Z,10.54
2023-04-13T17:01:16.988Z,10.54
2023-04-13T17:03:43.906Z,10.54
2023-04-13T17:06:10.924Z,10.57
2023-04-13T17:08:37.774Z,10.64
2023-04-13T17:11:07.123Z,10.65
2023-04-13T17:13:36.154Z,10.65
2023-04-13T17:16:04.016Z,10.63
2023-04-13T17:18:30.944Z,10.61
2023-04-13T17:20:57.818Z,10.59
2023-04-13T17:23:24.614Z,10.64
2023-04-13T17:25:56.271Z,10.66
2023-04-13T17:28:24.048Z,10.64
2023-04-13T17:30:50.996Z,10.67
2023-04-13T17:33:17.908Z,10.53
2023-04-13T17:35:44.718Z,10.62
2023-04-13T17:38:11.522Z,10.66
2023-04-13T17:40:38.332Z,10.66
2023-04-13T17:43:07.452Z,10.61
2023-04-13T17:45:34.301Z,10.55
2023-04-13T17:48:01.452Z,10.46
2023-04-13T17:50:28.420Z,10.42
2023-04-13T17:52:55.471Z,10.50
2023-04-13T17:55:22.283Z,10.53
2023-04-13T17:57:49.184Z,10.57
2023-04-13T18:00:16.402Z,10.59
2023-04-13T18:02:43.390Z,10.57
2023-04-13T18:05:15.284Z,10.51
2023-04-13T18:07:43.200Z,10.58
2023-04-13T18:10:10.793Z,10.60
2023-04-13T18:12:41.241Z,10.60
2023-04-13T18:15:09.071Z,10.59
2023-04-13T18:17:37.520Z,10.57
2023-04-13T18:20:05.661Z,10.52
2023-04-13T18:22:33.100Z,10.21
2023-04-13T18:24:59.982Z,9.92
2023-04-13T18:27:27.594Z,9.79
2023-04-13T18:29:55.657Z,9.91
2023-04-13T18:32:23.381Z,9.86
2023-04-13T18:34:50.317Z,9.86
2023-04-13T18:37:17.285Z,9.92
2023-04-13T18:39:44.895Z,9.89
2023-04-13T18:42:11.948Z,10.00
2023-04-13T18:44:38.772Z,10.05
2023-04-13T18:47:05.725Z,10.09
2023-04-13T18:49:32.583Z,9.99
2023-04-13T18:51:59.528Z,9.93
2023-04-13T18:54:26.433Z,9.76
2023-04-13T18:56:53.310Z,9.83
2023-04-13T18:59:20.180Z,9.89
2023-04-13T19:01:47.794Z,9.93
2023-04-13T19:04:15.038Z,9.57
2023-04-13T19:06:41.936Z,9.70
2023-04-13T19:09:08.747Z,9.80
2023-04-13T19:11:51.490Z,9.89
2023-04-13T19:14:18.342Z,9.88
2023-04-13T19:16:47.629Z,9.94
2023-04-13T19:19:15.620Z,9.91
2023-04-13T19:21:42.697Z,9.94
2023-04-13T19:24:13.036Z,9.94
2023-04-13T19:26:41.030Z,9.93
2023-04-13T19:29:12.535Z,9.86
2023-04-13T19:31:43.231Z,9.89
2023-04-13T19:34:11.341Z,9.90
2023-04-13T19:36:40.302Z,9.94
2023-04-13T19:39:08.098Z,9.93
2023-04-13T19:41:38.393Z,9.84
2023-04-13T19:44:05.854Z,9.85
2023-04-13T19:46:32.839Z,9.90
2023-04-13T19:49:01.982Z,9.87
2023-04-13T19:51:30.991Z,9.86
2023-04-13T19:53:59.578Z,9.80
2023-04-13T19:56:27.314Z,9.84
2023-04-13T19:58:54.107Z,9.83
2023-04-13T20:01:22.039Z,9.82
2023-04-13T20:03:49.012Z,9.83
2023-04-13T20:06:16.088Z,9.80
2023-04-13T20:08:46.602Z,9.81
2023-04-13T20:11:13.613Z,9.81
2023-04-13T20:13:41.293Z,9.67
2023-04-13T20:16:08.271Z,9.79
2023-04-13T20:18:35.217Z,9.79
2023-04-13T20:21:02.079Z,9.78
2023-04-13T20:23:31.242Z,9.78
2023-04-13T20:25:58.296Z,9.76
2023-04-13T20:28:25.334Z,9.76
2023-04-13T20:30:52.682Z,9.78
2023-04-13T20:33:19.499Z,9.79
2023-04-13T20:35:46.330Z,9.78
2023-04-13T20:38:13.874Z,9.75
2023-04-13T20:40:41.737Z,9.77
2023-04-13T20:43:10.809Z,9.76
2023-04-13T20:45:38.228Z,9.76
2023-04-13T20:50:36.412Z,9.77
2023-04-13T20:53:04.817Z,9.76
2023-04-13T20:55:31.840Z,9.75
2023-04-13T20:57:58.666Z,9.71
2023-04-13T21:00:27.339Z,9.68
2023-04-13T21:02:55.084Z,9.70
2023-04-13T21:05:22.232Z,9.67
2023-04-13T21:07:50.410Z,9.68
2023-04-13T21:10:17.734Z,9.72
2023-04-13T21:12:44.937Z,9.70
2023-04-13T21:15:11.870Z,9.68
2023-04-13T21:17:38.958Z,9.64
2023-04-13T21:20:08.874Z,9.64
2023-04-13T21:22:36.642Z,9.57
2023-04-13T21:25:05.312Z,9.63
2023-04-13T21:27:32.413Z,9.63
2023-04-13T21:30:00.867Z,9.63
2023-04-13T21:32:27.750Z,9.59
2023-04-13T21:34:55.734Z,9.59
2023-04-13T21:37:22.545Z,9.56
2023-04-13T21:39:49.363Z,9.39
2023-04-13T21:42:16.948Z,9.53
2023-04-13T21:44:43.769Z,9.54
2023-04-13T21:47:10.599Z,9.52
2023-04-13T21:49:37.416Z,9.47
2023-04-13T21:52:04.363Z,9.53
2023-04-13T21:54:31.197Z,9.53
2023-04-13T21:56:58.031Z,9.52
2023-04-13T21:59:27.259Z,9.51
2023-04-13T22:01:54.960Z,9.46
2023-04-13T22:04:22.411Z,9.45
2023-04-13T22:06:49.504Z,9.49
2023-04-13T22:09:16.492Z,9.48
2023-04-13T22:11:43.367Z,9.46
2023-04-13T22:14:10.267Z,9.46
2023-04-13T22:16:37.097Z,9.44
2023-04-13T22:19:03.937Z,9.35
2023-04-13T22:21:31.397Z,9.34
2023-04-13T22:23:58.230Z,9.34
2023-04-13T22:26:25.726Z,9.34
2023-04-13T22:28:52.532Z,9.33
2023-04-13T22:31:20.159Z,9.32
2023-04-13T22:33:47.066Z,9.33
2023-04-13T22:36:21.281Z,9.32
2023-04-13T22:38:49.038Z,9.31
2023-04-13T22:41:16.110Z,9.30
2023-04-13T22:43:42.977Z,9.31
2023-04-13T22:46:09.887Z,9.30
2023-04-13T22:48:36.736Z,9.24
2023-04-13T22:51:03.719Z,9.29
2023-04-13T22:53:31.346Z,9.25
2023-04-13T22:55:59.242Z,9.21
2023-04-13T22:58:26.324Z,9.22
2023-04-13T23:00:53.168Z,9.14
2023-04-13T23:03:20.165Z,9.22
2023-04-13T23:05:47.123Z,9.21
2023-04-13T23:08:14.084Z,9.17
2023-04-13T23:10:41.131Z,9.21
2023-04-13T23:13:08.053Z,9.19
2023-04-13T23:15:34.888Z,9.19
2023-04-13T23:18:02.703Z,9.18
2023-04-13T23:20:29.811Z,9.13
2023-04-13T23:22:56.674Z,9.15
2023-04-13T23:25:23.733Z,9.15
2023-04-13T23:27:50.799Z,9.13
2023-04-13T23:30:17.657Z,9.10
2023-04-13T23:32:44.551Z,9.08
2023-04-13T23:35:11.444Z,9.06
2023-04-13T23:37:40.299Z,9.07
2023-04-13T23:40:08.126Z,9.06
2023-04-13T23:42:35.636Z,9.05
2023-04-13T23:45:02.554Z,9.06
2023-04-13T23:47:29.473Z,9.03
2023-04-13T23:49:56.363Z,9.05
2023-04-13T23:52:23.201Z,9.05
2023-04-13T23:54:50.024Z,9.06
2023-04-13T23:57:16.839Z,9.04
2023-04-13T23:59:43.631Z,9.07
